Oscar Dyson — WTEP — position and weather

sailwx.info

Track history (hours):
 
Tides and Currents Weather Stations Pressure Air Temp Water Temp Dewpoint Dewpoint Depression Visibility Wind Speed Wind Dir Waves Ship Positions

Oceanographic research ship Oscar Dyson (USA)

Ship's website: http://www.moc.noaa.gov/od/

Detailed information on ship capabilities available from University of Delaware's Ocean Information Center and ARCUS's ALIAS (Arctic Logistics Information and Support) project.

Last reported at 2017-Apr-30 14:00 UTC. Time now 2017-Apr-30 14:45 UTC.
Position N 56°42' W 169°48'.

Type: Ship. MMSI: 369959000.

Wind from 100 at 4 knots

Barometer 992.6 mb
Air temperature 2.6 ° C
Dewpoint 1.6 ° C
Water temperature 3.1 ° C

Date/timePositionNaut miles runAvg speedWind from/ knotsBaromVisibWave heightAir tempDewpointWater temp
2017-Apr-30 14:00N 56°42' W 169°48'0 0.0 100 / 4992.6 2.6 1.6 3.1
2017-Apr-30 13:00N 56°42' W 169°48'7 6.8 120 / 4992.3 2.6 1.7 3.1
2017-Apr-30 12:00N 56°36' W 169°54'1212.4 110 / 7992.2 2.9 2.3 3.0
2017-Apr-30 11:00N 56°48' W 169°48'1212.0 120 / 6992.0 2.6 2.4 2.8
2017-Apr-30 10:00N 57°00' W 169°48'1413.7 100 / 9991.7 2.4 2.3 2.3
2017-Apr-30 09:00N 57°12' W 169°36'1212.4 110 / 19989.7 5.4 2.8 1.9-1.2
2017-Apr-30 08:00N 57°24' W 169°42'1212.0 100 / 23991.5 1.8 1.5 1.2
2017-Apr-30 07:00N 57°36' W 169°42'6 6.0 090 / 27991.7 1.3 1.0 0.9
2017-Apr-30 06:00N 57°42' W 169°42'1212.4 090 / 29992.0 0.9 0.5 0.7
2017-Apr-30 05:00N 57°54' W 169°36'6 6.0 090 / 31992.7 0.8 0.4 0.4
2017-Apr-30 04:00N 58°00' W 169°36'7 6.8 090 / 29993.7 0.6 0.3-0.2
2017-Apr-30 03:00N 58°06' W 169°42'1413.6 100 / 26994.6 0.5 0.1-0.1
2017-Apr-30 02:00N 57°54' W 169°30'0 0.0 100 / 28 0.7 0.5
2017-Apr-30 01:00N 57°54' W 169°30'6 6.4 100 / 23995.4 1.6 1.0 0.4
2017-Apr-30 00:00N 57°54' W 169°18'9 8.7 100 / 26996.2 0.6-0.1 0.1
2017-Apr-29 23:00N 58°00' W 169°06'10 9.5 090 / 24997.2 1.3 0.3-0.3
2017-Apr-29 22:00N 58°00' W 168°48'7 6.8 100 / 27998.2 1.8 0.5-0.0
2017-Apr-29 21:00N 58°06' W 168°42'7 6.8 110 / 22999.1 1.2 0.2-0.2
2017-Apr-29 20:00N 58°00' W 168°48'6 6.0 110 / 25999.0 1.3 0.1-0.1
2017-Apr-29 19:00N 57°54' W 168°48'0 0.0 110 / 22999.5 1.3 0.4 0.1
2017-Apr-29 18:00N 57°54' W 168°48'0 0.0 110 / 201000.1 1.2 0.7-0.2
2017-Apr-29 17:00N 57°54' W 168°48'1111.3 100 / 211000.5 1.0 0.5-0.0
2017-Apr-29 16:00N 57°48' W 168°30'0 0.0 100 / 191001.2 1.1 0.5 0.3
2017-Apr-29 15:00N 57°48' W 168°30'9 8.8 110 / 191001.8 1.1 0.4-0.0
2017-Apr-29 14:00N 57°42' W 168°42'1111.3 110 / 211001.6 1.4 1.0 0.4
2017-Apr-29 13:00N 57°36' W 169°00'6 6.4 110 / 181001.9 1.3 1.0 0.6
2017-Apr-29 12:00N 57°36' W 168°48'9 8.8 110 / 181003.0 1.5 1.4 0.7
2017-Apr-29 11:00N 57°30' W 168°36'6 6.4 110 / 191003.7 1.6 1.5 0.8
2017-Apr-29 10:00N 57°30' W 168°24'6 6.4 110 / 171004.6 1.4 1.3 0.9
2017-Apr-29 09:00N 57°30' W 168°12'10 9.7 110 / 171005.7 0.7 0.3 1.0
2017-Apr-29 08:00N 57°30' W 167°54'3 3.2 130 / 151006.3 1.8 1.5 1.2
2017-Apr-29 07:00N 57°30' W 167°48'6 6.4 120 / 141006.6 1.6 1.3 1.3
2017-Apr-29 06:00N 57°30' W 167°36'10 9.7 120 / 141007.1 1.9 1.2 0.8
2017-Apr-29 05:00N 57°30' W 167°18'0 0.0 130 / 141007.7 2.2 1.7 0.8
2017-Apr-29 04:00N 57°30' W 167°18'10 9.7 120 / 141008.0 2.5 1.5 0.8
2017-Apr-29 03:00N 57°30' W 167°00'6 6.4 120 / 121008.8 2.2 1.4 1.1
2017-Apr-29 02:00N 57°30' W 166°48'6 6.0 120 / 81009.4 2.9 2.3 0.7
2017-Apr-29 01:00N 57°24' W 166°48'6 6.5 130 / 91010.1 1.7 1.0 1.1
2017-Apr-29 00:00N 57°24' W 166°36'9 8.8 120 / 91010.7 2.6 2.0 0.7
2017-Apr-28 23:00N 57°18' W 166°24'3 3.2 120 / 9 3.2 0.8
2017-Apr-28 22:00N 57°18' W 166°18'3 3.2 140 / 81011.4 1.7 1.4 0.8
2017-Apr-28 21:00N 57°18' W 166°12'3 3.2 140 / 51009.710.8 4.2 -0.8
2017-Apr-28 20:00N 57°18' W 166°06'6 6.5 140 / 81011.7 1.5 1.4 1.1
2017-Apr-28 19:00N 57°18' W 165°54'6 6.5 110 / 71011.7 1.7 1.5 1.0
2017-Apr-28 18:00N 57°18' W 165°42'6 6.0 130 / 21012.0 2.2 2.0 1.1
2017-Apr-28 17:00N 57°12' W 165°42'3 3.3 130 / 61012.1 1.6 1.6 1.2
2017-Apr-28 16:00N 57°12' W 165°48'3195.0 130 / 31011.8 1.6 1.5 1.2
2017-Apr-28 15:59N 57°12' W 165°42'0 0.0 160 / 2 1.6 0.8
2017-Apr-28 15:00N 57°12' W 165°42'0 0.0 120 / 21011.8 1.7 1.6 1.5
2017-Apr-28 14:59N 57°12' W 165°42'7 6.9 110 / 5 1.4 1.3
2017-Apr-28 14:00N 57°06' W 165°36'7 6.8 120 / 5 1.8 1.0
2017-Apr-28 13:00N 57°00' W 165°30'7 6.5 120 / 61011.9 1.8 1.7 1.4
2017-Apr-28 12:00N 57°00' W 165°18'9 8.9 120 / 5 2.1 1.4
2017-Apr-28 11:00N 56°54' W 165°06'7 6.8 100 / 51011.6 2.2 1.7 1.2
2017-Apr-28 10:00N 56°48' W 165°00'9 8.9 100 / 4 2.1 1.6
2017-Apr-28 09:00N 56°54' W 164°48'0 0.0 110 / 5 2.5 1.7
2017-Apr-28 08:00N 56°54' W 164°48'9 8.9 090 / 51011.2 2.4 2.1 1.8
2017-Apr-28 07:00N 56°48' W 164°36'9 8.9 100 / 6 2.4 2.1
2017-Apr-28 06:00N 56°42' W 164°24'3 3.3 100 / 4 2.9 2.7
2017-Apr-28 05:00N 56°42' W 164°18'9 8.9 110 / 4 3.2 2.8
2017-Apr-28 04:00N 56°48' W 164°06'3 3.3 110 / 5 3.1 3.2
2017-Apr-28 03:00N 56°48' W 164°00'0 0.0 110 / 4 3.4 2.2
2017-Apr-28 02:00N 56°48' W 164°00'0 0.0 110 / 4 4.8 1.9
2017-Apr-28 01:00N 56°48' W 164°00'7 6.8 140 / 6 4.5 2.3
2017-Apr-28 00:00N 56°54' W 164°06'7 6.8 130 / 41008.7 3.5 2.3 2.8
2017-Apr-27 23:00N 56°48' W 164°00'7 6.8 130 / 6 3.1 2.4
2017-Apr-27 22:00N 56°54' W 164°06'0 0.0 160 / 91007.8 2.9 1.6 2.3
2017-Apr-27 21:00N 56°54' W 164°06'0 0.0 170 / 71007.2 3.2 2.5 2.1
2017-Apr-27 20:00N 56°54' W 164°06'7 6.8 180 / 51006.7 3.6 3.3 2.1
2017-Apr-27 19:00N 56°48' W 164°00'7 6.8 160 / 8 2.9 2.2
2017-Apr-27 18:00N 56°54' W 164°06'0 0.0 130 / 71005.9 2.2 2.1 1.8
2017-Apr-27 17:00N 56°54' W 164°06'0 0.0 130 / 61005.4 1.8 1.5 2.1
2017-Apr-27 16:00N 56°54' W 164°06'3 3.3 120 / 61004.7 2.3 2.1 2.1
2017-Apr-27 15:00N 56°54' W 164°12'0 0.0 120 / 61004.5 2.4 2.0 2.1
2017-Apr-27 14:00N 56°54' W 164°12'7 6.8 110 / 71004.1 2.3 1.9 2.1
2017-Apr-27 13:00N 56°48' W 164°18'9 8.9 100 / 21003.8 2.6 2.1 2.1
2017-Apr-27 12:00N 56°42' W 164°06'7 6.6 100 / 31003.7 2.7 2.3 2.1
2017-Apr-27 11:00N 56°42' W 163°54'0 0.0 220 / 41003.6 3.0 2.7 1.9
2017-Apr-27 10:00N 56°42' W 163°54'3 3.3 200 / 51003.2 3.1 2.8 2.0
2017-Apr-27 09:00N 56°42' W 163°48'3 3.3 190 / 61002.9 2.8 2.6 1.8
2017-Apr-27 08:00N 56°42' W 163°54'0 0.0 200 / 71002.4 2.5 2.2 2.0
2017-Apr-27 07:00N 56°42' W 163°54'1212.4 210 / 71001.8 2.4 2.0 2.0
2017-Apr-27 06:00N 56°54' W 163°48'0 0.0 120 / 81001.3 2.4 1.7 1.8
2017-Apr-27 05:00N 56°54' W 163°48'1211.5 110 / 81001.0 2.9 2.1 2.0
2017-Apr-27 04:00N 57°00' W 164°06'3 3.3 090 / 21000.6 2.4 1.3 2.3
2017-Apr-27 03:00N 57°00' W 164°12'3 3.3 130 / 61000.3 3.3 1.9 1.0
2017-Apr-27 02:00N 57°00' W 164°06'3 3.3 150 / 51000.2 3.0 2.0 2.3
2017-Apr-27 01:00N 57°00' W 164°00'0 0.0 150 / 41000.1 3.2 2.3 1.6
2017-Apr-27 00:00N 57°00' W 164°00'3 3.3 140 / 5999.9 2.4 1.6 1.5
2017-Apr-26 23:00N 57°00' W 164°06'3 3.3 180 / 6999.6 2.3 1.2 1.3
2017-Apr-26 22:00N 57°00' W 164°12'7 6.8 170 / 5999.2 3.0 1.9 1.2
2017-Apr-26 21:00N 56°54' W 164°06'0 0.0 180 / 6998.8 3.2 2.4 1.8
2017-Apr-26 20:00N 56°54' W 164°06'6 6.0 150 / 6998.5 2.4 2.0 1.6
2017-Apr-26 19:00N 56°48' W 164°06'1212.0 120 / 9997.9 2.0 1.6 1.4
2017-Apr-26 18:00N 56°36' W 164°06'1615.6 120 / 9995.810.8 4.0 1.6-1.2
2017-Apr-26 17:00N 56°24' W 164°24'1413.7 100 / 8996.8 2.9 2.4 3.4
2017-Apr-26 16:00N 56°12' W 164°36'1413.7 200 / 4996.5 3.3 2.9 3.8
2017-Apr-26 15:00N 56°00' W 164°48'1212.5 250 / 2996.4 3.3 2.9 3.8
2017-Apr-26 14:00N 55°48' W 164°54'1413.8 080 / 1996.3 3.4 2.7 4.0
2017-Apr-26 13:00N 55°36' W 165°06'1413.8 160 / 2996.3 3.5 2.5 4.1
2017-Apr-26 12:00N 55°24' W 165°18'1818.3 140 / 6996.2 3.8 2.4 4.1
2017-Apr-26 11:00N 55°06' W 165°24'1413.8 140 / 10996.1 4.0 1.5 4.1
2017-Apr-26 10:00N 54°54' W 165°36'9 9.2 140 / 14995.7 3.9 1.9 3.8
2017-Apr-26 09:00N 54°48' W 165°48'1212.5 140 / 14995.5 3.9 2.1 4.4
2017-Apr-26 08:00N 54°36' W 165°54'1413.9 140 / 13995.0 4.3 1.5 4.3
2017-Apr-26 07:00N 54°24' W 166°06'1413.9 190 / 8994.5 4.8 0.3 4.6
2017-Apr-26 06:00N 54°12' W 166°18'1413.9 150 / 18993.8 4.5 1.5 4.6
2017-Apr-26 05:00N 54°00' W 166°30'7 7.0 140 / 15993.4 5.7 0.2 5.4
2017-Apr-26 04:00N 53°54' W 166°24'0 0.0 150 / 12 5.7 5.4
2017-Apr-26 03:00N 53°54' W 166°24'6 6.0 150 / 11993.0 5.6 0.8 5.4
2017-Apr-26 02:00N 54°00' W 166°24'1413.9 120 / 14992.9 5.0 2.1 4.7
2017-Apr-26 01:00N 54°12' W 166°12'1515.3 150 / 21992.7 4.5 1.9 4.3
2017-Apr-26 00:00N 54°18' W 165°48'9 9.2 150 / 13991.310.8 5.5 2.0-4.8
2017-Apr-25 23:00N 54°24' W 165°36'1010.5 190 / 15993.1 4.9 1.6 4.3
2017-Apr-25 22:00N 54°24' W 165°18'1414.0 170 / 17993.2 4.6 2.6 4.3
2017-Apr-25 21:00N 54°24' W 164°54'1515.2 150 / 11993.4 4.2 3.1 3.7
2017-Apr-25 20:00N 54°18' W 164°30'1212.1 140 / 7993.3 4.0 2.5 3.5
2017-Apr-25 19:00N 54°24' W 164°12'1717.5 130 / 6 3.8 4.3
2017-Apr-25 18:00N 54°24' W 163°42'1212.1 110 / 9991.310.8 4.0 -3.1
2017-Apr-25 17:00N 54°30' W 163°24'1212.0 130 / 8 3.1 4.1
2017-Apr-25 16:00N 54°36' W 163°06'1413.9 120 / 9 3.7 3.7
2017-Apr-25 15:00N 54°36' W 162°42'7 7.0 130 / 7 3.3 3.3
2017-Apr-25 14:00N 54°36' W 162°30'3 3.5 130 / 5 3.3 3.5
2017-Apr-25 13:00N 54°36' W 162°36'7 6.9 150 / 7 3.4 3.4
2017-Apr-25 12:00N 54°42' W 162°42'3 3.5 150 / 7 3.3 3.4
2017-Apr-25 11:00N 54°42' W 162°36'3 3.5 150 / 6 3.5 3.6
2017-Apr-25 10:00N 54°42' W 162°30'1010.4 160 / 7 3.6 3.6
2017-Apr-25 09:00N 54°42' W 162°48'3 3.5 170 / 9989.4 5.4 3.8 -3.1
2017-Apr-25 08:00N 54°42' W 162°42'1615.9 150 / 5 3.4 3.4
2017-Apr-25 07:00N 54°54' W 162°24'7 6.9 110 / 15 4.4 3.7
2017-Apr-25 06:00N 55°00' W 162°30'0 0.0 120 / 12 4.4 3.0
2017-Apr-25 05:00N 55°00' W 162°30'0 0.0 110 / 12 4.9 2.7
2017-Apr-25 04:00N 55°00' W 162°30'6 6.0 130 / 14 4.9 2.7
2017-Apr-25 03:00N 55°06' W 162°30'7 6.9 130 / 18991.0 5.2 2.8 2.7
2017-Apr-25 02:00N 55°00' W 162°24'1413.8 100 / 19 4.2 3.5
2017-Apr-25 01:00N 54°48' W 162°36'6 6.0 100 / 17 4.2 3.6
2017-Apr-25 00:00N 54°42' W 162°36'7 6.9 090 / 13991.6 5.3 4.6 3.5
2017-Apr-24 23:00N 54°36' W 162°30'3 3.5 100 / 13991.8 5.0 4.3 3.8
2017-Apr-24 22:00N 54°36' W 162°36'6 6.0 110 / 13991.5 4.7 4.0 3.4
2017-Apr-24 21:00N 54°42' W 162°36'0 0.0 090 / 14991.8 4.1 3.4 3.5
2017-Apr-24 20:00N 54°42' W 162°36'6 6.0 110 / 12991.7 4.1 3.6 3.5
2017-Apr-24 19:00N 54°36' W 162°36'0 0.0 120 / 14991.5 4.1 3.5 3.3
2017-Apr-24 18:00N 54°36' W 162°36'6 6.0 120 / 16991.4 4.0 3.5 3.3
2017-Apr-24 17:00N 54°42' W 162°36'1212.0 100 / 17991.3 3.9 3.3 3.4
2017-Apr-24 16:00N 54°54' W 162°36'9 9.1 110 / 20991.4 3.8 2.4 3.4
2017-Apr-24 15:00N 55°00' W 162°24'1413.8 100 / 17992.1 3.6 2.2 3.7
2017-Apr-24 14:00N 55°00' W 162°00'7 6.9 110 / 10992.8 3.9 2.3 3.5
2017-Apr-24 13:00N 55°06' W 161°54'1413.8 120 / 10992.9 3.6 2.5 3.7
2017-Apr-24 12:00N 55°18' W 161°42'1010.2 130 / 8993.4 3.4 2.7 3.5
2017-Apr-24 11:00N 55°18' W 161°24'1413.7 140 / 13993.6 3.7 3.4 3.4
2017-Apr-24 10:00N 55°18' W 161°00'1211.9 150 / 10993.7 4.0 3.8 4.1
2017-Apr-24 09:00N 55°24' W 160°42'1514.9 110 / 14994.0 3.9 3.7 3.8
2017-Apr-24 08:00N 55°30' W 160°18'1010.2 080 / 19994.3 4.1 3.8 3.6
2017-Apr-24 07:00N 55°30' W 160°00'1413.6 080 / 15995.0 3.9 3.5 4.0
2017-Apr-24 06:00N 55°30' W 159°36'1413.6 090 / 13995.4 3.9 3.5 3.7
2017-Apr-24 05:00N 55°30' W 159°12'1413.6 110 / 12995.8 4.0 3.4 4.3
2017-Apr-24 04:00N 55°30' W 158°48'1413.6 120 / 11996.0 4.3 3.7 4.8
2017-Apr-24 03:00N 55°30' W 158°24'1413.6 130 / 10996.2 4.2 3.6 4.7
2017-Apr-24 02:00N 55°30' W 158°00'1413.6 150 / 11996.4 4.3 3.7 4.7
2017-Apr-24 01:00N 55°30' W 157°36'1010.2 150 / 11996.7 4.3 4.0 4.6
2017-Apr-24 00:00N 55°30' W 157°18'1413.6 170 / 11996.9 4.1 4.0 4.5
2017-Apr-23 23:00N 55°30' W 156°54'1413.6 170 / 14997.0 4.5 4.2 4.3
2017-Apr-23 22:00N 55°30' W 156°30'1211.8 150 / 12997.1 4.7 4.6 4.3
2017-Apr-23 21:00N 55°36' W 156°12'1413.6 150 / 13997.1 4.8 4.7 4.3
2017-Apr-23 20:00N 55°36' W 155°48'1514.8 140 / 19997.1 5.1 5.1 5.5
2017-Apr-23 19:00N 55°30' W 155°24'1514.8 120 / 22 5.0 5.3
2017-Apr-23 18:00N 55°36' W 155°00'7 6.9 110 / 24995.8 5.4 5.0 -5.3
2017-Apr-23 17:00N 55°42' W 154°54'1514.8 100 / 24 5.0 5.7
2017-Apr-23 16:00N 55°48' W 154°30'3115.7 090 / 23 5.0 6.0
2017-Apr-23 14:00N 56°12' W 153°54'1211.7 090 / 17999.8 4.6 4.6 6.0
2017-Apr-23 13:00N 56°18' W 153°36'1211.6 100 / 161000.3 4.3 4.3 5.1
2017-Apr-23 12:00N 56°24' W 153°18'1413.7 110 / 151000.8 4.5 4.5 5.0
2017-Apr-23 11:00N 56°36' W 153°06'1413.7 110 / 151001.2 4.3 4.3 4.6
2017-Apr-23 10:00N 56°48' W 152°54'9 8.9 110 / 111001.5 4.6 4.6 4.8
2017-Apr-23 09:00N 56°54' W 152°42'1515.5 130 / 151001.7 4.8 4.8 5.2
2017-Apr-23 08:00N 57°06' W 152°24'1413.6 110 / 131002.1 5.1 5.1 5.9
2017-Apr-23 07:00N 57°18' W 152°12'1212.4 100 / 111002.3 5.0 5.0 5.4
2017-Apr-23 06:00N 57°30' W 152°06'1212.0 080 / 131002.4 4.9 4.9 4.6
2017-Apr-23 05:00N 57°42' W 152°06'6 6.4 070 / 171002.8 5.1 5.1 4.6
2017-Apr-23 04:00N 57°42' W 152°18'0 0.0 080 / 171003.7 5.1 5.0 4.7
2017-Apr-23 03:00N 57°42' W 152°18'0 0.0 070 / 191004.2 5.2 5.1 5.1
2017-Apr-23 02:00N 57°42' W 152°18'0 0.0 070 / 191004.6 5.2 4.9 5.0
2017-Apr-23 01:00N 57°42' W 152°18'0 0.0 060 / 191005.4 5.2 4.8 4.8
2017-Apr-23 00:00N 57°42' W 152°18'   060 / 181005.7 5.2 4.6 5.0
Track history (hours):
 
Tides and Currents Weather Stations Pressure Air Temp Water Temp Dewpoint Dewpoint Depression Visibility Wind Speed Wind Dir Waves Ship Positions

Oceanographic research ship Oscar Dyson (USA)

Ship's website: http://www.moc.noaa.gov/od/

Detailed information on ship capabilities available from University of Delaware's Ocean Information Center and ARCUS's ALIAS (Arctic Logistics Information and Support) project.

Last reported at 2017-Apr-30 14:00 UTC. Time now 2017-Apr-30 14:45 UTC.
Position N 56°42' W 169°48'.

Type: Ship. MMSI: 369959000.

Wind from 100 at 4 knots

Barometer 992.6 mb
Air temperature 2.6 ° C
Dewpoint 1.6 ° C
Water temperature 3.1 ° C

Date/timePositionNaut miles runAvg speedWind from/ knotsBaromVisibWave heightAir tempDewpointWater temp
2017-Apr-30 14:00N 56°42' W 169°48'0 0.0 100 / 4992.6 2.6 1.6 3.1
2017-Apr-30 13:00N 56°42' W 169°48'7 6.8 120 / 4992.3 2.6 1.7 3.1
2017-Apr-30 12:00N 56°36' W 169°54'1212.4 110 / 7992.2 2.9 2.3 3.0
2017-Apr-30 11:00N 56°48' W 169°48'1212.0 120 / 6992.0 2.6 2.4 2.8
2017-Apr-30 10:00N 57°00' W 169°48'1413.7 100 / 9991.7 2.4 2.3 2.3
2017-Apr-30 09:00N 57°12' W 169°36'1212.4 110 / 19989.7 5.4 2.8 1.9-1.2
2017-Apr-30 08:00N 57°24' W 169°42'1212.0 100 / 23991.5 1.8 1.5 1.2
2017-Apr-30 07:00N 57°36' W 169°42'6 6.0 090 / 27991.7 1.3 1.0 0.9
2017-Apr-30 06:00N 57°42' W 169°42'1212.4 090 / 29992.0 0.9 0.5 0.7
2017-Apr-30 05:00N 57°54' W 169°36'6 6.0 090 / 31992.7 0.8 0.4 0.4
2017-Apr-30 04:00N 58°00' W 169°36'7 6.8 090 / 29993.7 0.6 0.3-0.2
2017-Apr-30 03:00N 58°06' W 169°42'1413.6 100 / 26994.6 0.5 0.1-0.1
2017-Apr-30 02:00N 57°54' W 169°30'0 0.0 100 / 28 0.7 0.5
2017-Apr-30 01:00N 57°54' W 169°30'6 6.4 100 / 23995.4 1.6 1.0 0.4
2017-Apr-30 00:00N 57°54' W 169°18'9 8.7 100 / 26996.2 0.6-0.1 0.1
2017-Apr-29 23:00N 58°00' W 169°06'10 9.5 090 / 24997.2 1.3 0.3-0.3
2017-Apr-29 22:00N 58°00' W 168°48'7 6.8 100 / 27998.2 1.8 0.5-0.0
2017-Apr-29 21:00N 58°06' W 168°42'7 6.8 110 / 22999.1 1.2 0.2-0.2
2017-Apr-29 20:00N 58°00' W 168°48'6 6.0 110 / 25999.0 1.3 0.1-0.1
2017-Apr-29 19:00N 57°54' W 168°48'0 0.0 110 / 22999.5 1.3 0.4 0.1
2017-Apr-29 18:00N 57°54' W 168°48'0 0.0 110 / 201000.1 1.2 0.7-0.2
2017-Apr-29 17:00N 57°54' W 168°48'1111.3 100 / 211000.5 1.0 0.5-0.0
2017-Apr-29 16:00N 57°48' W 168°30'0 0.0 100 / 191001.2 1.1 0.5 0.3
2017-Apr-29 15:00N 57°48' W 168°30'9 8.8 110 / 191001.8 1.1 0.4-0.0
2017-Apr-29 14:00N 57°42' W 168°42'1111.3 110 / 211001.6 1.4 1.0 0.4
2017-Apr-29 13:00N 57°36' W 169°00'6 6.4 110 / 181001.9 1.3 1.0 0.6
2017-Apr-29 12:00N 57°36' W 168°48'9 8.8 110 / 181003.0 1.5 1.4 0.7
2017-Apr-29 11:00N 57°30' W 168°36'6 6.4 110 / 191003.7 1.6 1.5 0.8
2017-Apr-29 10:00N 57°30' W 168°24'6 6.4 110 / 171004.6 1.4 1.3 0.9
2017-Apr-29 09:00N 57°30' W 168°12'10 9.7 110 / 171005.7 0.7 0.3 1.0
2017-Apr-29 08:00N 57°30' W 167°54'3 3.2 130 / 151006.3 1.8 1.5 1.2
2017-Apr-29 07:00N 57°30' W 167°48'6 6.4 120 / 141006.6 1.6 1.3 1.3
2017-Apr-29 06:00N 57°30' W 167°36'10 9.7 120 / 141007.1 1.9 1.2 0.8
2017-Apr-29 05:00N 57°30' W 167°18'0 0.0 130 / 141007.7 2.2 1.7 0.8
2017-Apr-29 04:00N 57°30' W 167°18'10 9.7 120 / 141008.0 2.5 1.5 0.8
2017-Apr-29 03:00N 57°30' W 167°00'6 6.4 120 / 121008.8 2.2 1.4 1.1
2017-Apr-29 02:00N 57°30' W 166°48'6 6.0 120 / 81009.4 2.9 2.3 0.7
2017-Apr-29 01:00N 57°24' W 166°48'6 6.5 130 / 91010.1 1.7 1.0 1.1
2017-Apr-29 00:00N 57°24' W 166°36'9 8.8 120 / 91010.7 2.6 2.0 0.7
2017-Apr-28 23:00N 57°18' W 166°24'3 3.2 120 / 9 3.2 0.8
2017-Apr-28 22:00N 57°18' W 166°18'3 3.2 140 / 81011.4 1.7 1.4 0.8
2017-Apr-28 21:00N 57°18' W 166°12'3 3.2 140 / 51009.710.8 4.2 -0.8
2017-Apr-28 20:00N 57°18' W 166°06'6 6.5 140 / 81011.7 1.5 1.4 1.1
2017-Apr-28 19:00N 57°18' W 165°54'6 6.5 110 / 71011.7 1.7 1.5 1.0
2017-Apr-28 18:00N 57°18' W 165°42'6 6.0 130 / 21012.0 2.2 2.0 1.1
2017-Apr-28 17:00N 57°12' W 165°42'3 3.3 130 / 61012.1 1.6 1.6 1.2
2017-Apr-28 16:00N 57°12' W 165°48'3195.0 130 / 31011.8 1.6 1.5 1.2
2017-Apr-28 15:59N 57°12' W 165°42'0 0.0 160 / 2 1.6 0.8
2017-Apr-28 15:00N 57°12' W 165°42'0 0.0 120 / 21011.8 1.7 1.6 1.5
2017-Apr-28 14:59N 57°12' W 165°42'7 6.9 110 / 5 1.4 1.3
2017-Apr-28 14:00N 57°06' W 165°36'7 6.8 120 / 5 1.8 1.0
2017-Apr-28 13:00N 57°00' W 165°30'7 6.5 120 / 61011.9 1.8 1.7 1.4
2017-Apr-28 12:00N 57°00' W 165°18'9 8.9 120 / 5 2.1 1.4
2017-Apr-28 11:00N 56°54' W 165°06'7 6.8 100 / 51011.6 2.2 1.7 1.2
2017-Apr-28 10:00N 56°48' W 165°00'9 8.9 100 / 4 2.1 1.6
2017-Apr-28 09:00N 56°54' W 164°48'0 0.0 110 / 5 2.5 1.7
2017-Apr-28 08:00N 56°54' W 164°48'9 8.9 090 / 51011.2 2.4 2.1 1.8
2017-Apr-28 07:00N 56°48' W 164°36'9 8.9 100 / 6 2.4 2.1
2017-Apr-28 06:00N 56°42' W 164°24'3 3.3 100 / 4 2.9 2.7
2017-Apr-28 05:00N 56°42' W 164°18'9 8.9 110 / 4 3.2 2.8
2017-Apr-28 04:00N 56°48' W 164°06'3 3.3 110 / 5 3.1 3.2
2017-Apr-28 03:00N 56°48' W 164°00'0 0.0 110 / 4 3.4 2.2
2017-Apr-28 02:00N 56°48' W 164°00'0 0.0 110 / 4 4.8 1.9
2017-Apr-28 01:00N 56°48' W 164°00'7 6.8 140 / 6 4.5 2.3
2017-Apr-28 00:00N 56°54' W 164°06'7 6.8 130 / 41008.7 3.5 2.3 2.8
2017-Apr-27 23:00N 56°48' W 164°00'7 6.8 130 / 6 3.1 2.4
2017-Apr-27 22:00N 56°54' W 164°06'0 0.0 160 / 91007.8 2.9 1.6 2.3
2017-Apr-27 21:00N 56°54' W 164°06'0 0.0 170 / 71007.2 3.2 2.5 2.1
2017-Apr-27 20:00N 56°54' W 164°06'7 6.8 180 / 51006.7 3.6 3.3 2.1
2017-Apr-27 19:00N 56°48' W 164°00'7 6.8 160 / 8 2.9 2.2
2017-Apr-27 18:00N 56°54' W 164°06'0 0.0 130 / 71005.9 2.2 2.1 1.8
2017-Apr-27 17:00N 56°54' W 164°06'0 0.0 130 / 61005.4 1.8 1.5 2.1
2017-Apr-27 16:00N 56°54' W 164°06'3 3.3 120 / 61004.7 2.3 2.1 2.1
2017-Apr-27 15:00N 56°54' W 164°12'0 0.0 120 / 61004.5 2.4 2.0 2.1
2017-Apr-27 14:00N 56°54' W 164°12'7 6.8 110 / 71004.1 2.3 1.9 2.1
2017-Apr-27 13:00N 56°48' W 164°18'9 8.9 100 / 21003.8 2.6 2.1 2.1
2017-Apr-27 12:00N 56°42' W 164°06'7 6.6 100 / 31003.7 2.7 2.3 2.1
2017-Apr-27 11:00N 56°42' W 163°54'0 0.0 220 / 41003.6 3.0 2.7 1.9
2017-Apr-27 10:00N 56°42' W 163°54'3 3.3 200 / 51003.2 3.1 2.8 2.0
2017-Apr-27 09:00N 56°42' W 163°48'3 3.3 190 / 61002.9 2.8 2.6 1.8
2017-Apr-27 08:00N 56°42' W 163°54'0 0.0 200 / 71002.4 2.5 2.2 2.0
2017-Apr-27 07:00N 56°42' W 163°54'1212.4 210 / 71001.8 2.4 2.0 2.0
2017-Apr-27 06:00N 56°54' W 163°48'0 0.0 120 / 81001.3 2.4 1.7 1.8
2017-Apr-27 05:00N 56°54' W 163°48'1211.5 110 / 81001.0 2.9 2.1 2.0
2017-Apr-27 04:00N 57°00' W 164°06'3 3.3 090 / 21000.6 2.4 1.3 2.3
2017-Apr-27 03:00N 57°00' W 164°12'3 3.3 130 / 61000.3 3.3 1.9 1.0
2017-Apr-27 02:00N 57°00' W 164°06'3 3.3 150 / 51000.2 3.0 2.0 2.3
2017-Apr-27 01:00N 57°00' W 164°00'0 0.0 150 / 41000.1 3.2 2.3 1.6
2017-Apr-27 00:00N 57°00' W 164°00'3 3.3 140 / 5999.9 2.4 1.6 1.5
2017-Apr-26 23:00N 57°00' W 164°06'3 3.3 180 / 6999.6 2.3 1.2 1.3
2017-Apr-26 22:00N 57°00' W 164°12'7 6.8 170 / 5999.2 3.0 1.9 1.2
2017-Apr-26 21:00N 56°54' W 164°06'0 0.0 180 / 6998.8 3.2 2.4 1.8
2017-Apr-26 20:00N 56°54' W 164°06'6 6.0 150 / 6998.5 2.4 2.0 1.6
2017-Apr-26 19:00N 56°48' W 164°06'1212.0 120 / 9997.9 2.0 1.6 1.4
2017-Apr-26 18:00N 56°36' W 164°06'1615.6 120 / 9995.810.8 4.0 1.6-1.2
2017-Apr-26 17:00N 56°24' W 164°24'1413.7 100 / 8996.8 2.9 2.4 3.4
2017-Apr-26 16:00N 56°12' W 164°36'1413.7 200 / 4996.5 3.3 2.9 3.8
2017-Apr-26 15:00N 56°00' W 164°48'1212.5 250 / 2996.4 3.3 2.9 3.8
2017-Apr-26 14:00N 55°48' W 164°54'1413.8 080 / 1996.3 3.4 2.7 4.0
2017-Apr-26 13:00N 55°36' W 165°06'1413.8 160 / 2996.3 3.5 2.5 4.1
2017-Apr-26 12:00N 55°24' W 165°18'1818.3 140 / 6996.2 3.8 2.4 4.1
2017-Apr-26 11:00N 55°06' W 165°24'1413.8 140 / 10996.1 4.0 1.5 4.1
2017-Apr-26 10:00N 54°54' W 165°36'9 9.2 140 / 14995.7 3.9 1.9 3.8
2017-Apr-26 09:00N 54°48' W 165°48'1212.5 140 / 14995.5 3.9 2.1 4.4
2017-Apr-26 08:00N 54°36' W 165°54'1413.9 140 / 13995.0 4.3 1.5 4.3
2017-Apr-26 07:00N 54°24' W 166°06'1413.9 190 / 8994.5 4.8 0.3 4.6
2017-Apr-26 06:00N 54°12' W 166°18'1413.9 150 / 18993.8 4.5 1.5 4.6
2017-Apr-26 05:00N 54°00' W 166°30'7 7.0 140 / 15993.4 5.7 0.2 5.4
2017-Apr-26 04:00N 53°54' W 166°24'0 0.0 150 / 12 5.7 5.4
2017-Apr-26 03:00N 53°54' W 166°24'6 6.0 150 / 11993.0 5.6 0.8 5.4
2017-Apr-26 02:00N 54°00' W 166°24'1413.9 120 / 14992.9 5.0 2.1 4.7
2017-Apr-26 01:00N 54°12' W 166°12'1515.3 150 / 21992.7 4.5 1.9 4.3
2017-Apr-26 00:00N 54°18' W 165°48'9 9.2 150 / 13991.310.8 5.5 2.0-4.8
2017-Apr-25 23:00N 54°24' W 165°36'1010.5 190 / 15993.1 4.9 1.6 4.3
2017-Apr-25 22:00N 54°24' W 165°18'1414.0 170 / 17993.2 4.6 2.6 4.3
2017-Apr-25 21:00N 54°24' W 164°54'1515.2 150 / 11993.4 4.2 3.1 3.7
2017-Apr-25 20:00N 54°18' W 164°30'1212.1 140 / 7993.3 4.0 2.5 3.5
2017-Apr-25 19:00N 54°24' W 164°12'1717.5 130 / 6 3.8 4.3
2017-Apr-25 18:00N 54°24' W 163°42'1212.1 110 / 9991.310.8 4.0 -3.1
2017-Apr-25 17:00N 54°30' W 163°24'1212.0 130 / 8 3.1 4.1
2017-Apr-25 16:00N 54°36' W 163°06'1413.9 120 / 9 3.7 3.7
2017-Apr-25 15:00N 54°36' W 162°42'7 7.0 130 / 7 3.3 3.3
2017-Apr-25 14:00N 54°36' W 162°30'3 3.5 130 / 5 3.3 3.5
2017-Apr-25 13:00N 54°36' W 162°36'7 6.9 150 / 7 3.4 3.4
2017-Apr-25 12:00N 54°42' W 162°42'3 3.5 150 / 7 3.3 3.4
2017-Apr-25 11:00N 54°42' W 162°36'3 3.5 150 / 6 3.5 3.6
2017-Apr-25 10:00N 54°42' W 162°30'1010.4 160 / 7 3.6 3.6
2017-Apr-25 09:00N 54°42' W 162°48'3 3.5 170 / 9989.4 5.4 3.8 -3.1
2017-Apr-25 08:00N 54°42' W 162°42'1615.9 150 / 5 3.4 3.4
2017-Apr-25 07:00N 54°54' W 162°24'7 6.9 110 / 15 4.4 3.7
2017-Apr-25 06:00N 55°00' W 162°30'0 0.0 120 / 12 4.4 3.0
2017-Apr-25 05:00N 55°00' W 162°30'0 0.0 110 / 12 4.9 2.7
2017-Apr-25 04:00N 55°00' W 162°30'6 6.0 130 / 14 4.9 2.7
2017-Apr-25 03:00N 55°06' W 162°30'7 6.9 130 / 18991.0 5.2 2.8 2.7
2017-Apr-25 02:00N 55°00' W 162°24'1413.8 100 / 19 4.2 3.5
2017-Apr-25 01:00N 54°48' W 162°36'6 6.0 100 / 17 4.2 3.6
2017-Apr-25 00:00N 54°42' W 162°36'7 6.9 090 / 13991.6 5.3 4.6 3.5
2017-Apr-24 23:00N 54°36' W 162°30'3 3.5 100 / 13991.8 5.0 4.3 3.8
2017-Apr-24 22:00N 54°36' W 162°36'6 6.0 110 / 13991.5 4.7 4.0 3.4
2017-Apr-24 21:00N 54°42' W 162°36'0 0.0 090 / 14991.8 4.1 3.4 3.5
2017-Apr-24 20:00N 54°42' W 162°36'6 6.0 110 / 12991.7 4.1 3.6 3.5
2017-Apr-24 19:00N 54°36' W 162°36'0 0.0 120 / 14991.5 4.1 3.5 3.3
2017-Apr-24 18:00N 54°36' W 162°36'6 6.0 120 / 16991.4 4.0 3.5 3.3
2017-Apr-24 17:00N 54°42' W 162°36'1212.0 100 / 17991.3 3.9 3.3 3.4
2017-Apr-24 16:00N 54°54' W 162°36'9 9.1 110 / 20991.4 3.8 2.4 3.4
2017-Apr-24 15:00N 55°00' W 162°24'1413.8 100 / 17992.1 3.6 2.2 3.7
2017-Apr-24 14:00N 55°00' W 162°00'7 6.9 110 / 10992.8 3.9 2.3 3.5
2017-Apr-24 13:00N 55°06' W 161°54'1413.8 120 / 10992.9 3.6 2.5 3.7
2017-Apr-24 12:00N 55°18' W 161°42'1010.2 130 / 8993.4 3.4 2.7 3.5
2017-Apr-24 11:00N 55°18' W 161°24'1413.7 140 / 13993.6 3.7 3.4 3.4
2017-Apr-24 10:00N 55°18' W 161°00'1211.9 150 / 10993.7 4.0 3.8 4.1
2017-Apr-24 09:00N 55°24' W 160°42'1514.9 110 / 14994.0 3.9 3.7 3.8
2017-Apr-24 08:00N 55°30' W 160°18'1010.2 080 / 19994.3 4.1 3.8 3.6
2017-Apr-24 07:00N 55°30' W 160°00'1413.6 080 / 15995.0 3.9 3.5 4.0
2017-Apr-24 06:00N 55°30' W 159°36'1413.6 090 / 13995.4 3.9 3.5 3.7
2017-Apr-24 05:00N 55°30' W 159°12'1413.6 110 / 12995.8 4.0 3.4 4.3
2017-Apr-24 04:00N 55°30' W 158°48'1413.6 120 / 11996.0 4.3 3.7 4.8
2017-Apr-24 03:00N 55°30' W 158°24'1413.6 130 / 10996.2 4.2 3.6 4.7
2017-Apr-24 02:00N 55°30' W 158°00'1413.6 150 / 11996.4 4.3 3.7 4.7
2017-Apr-24 01:00N 55°30' W 157°36'1010.2 150 / 11996.7 4.3 4.0 4.6
2017-Apr-24 00:00N 55°30' W 157°18'1413.6 170 / 11996.9 4.1 4.0 4.5
2017-Apr-23 23:00N 55°30' W 156°54'1413.6 170 / 14997.0 4.5 4.2 4.3
2017-Apr-23 22:00N 55°30' W 156°30'1211.8 150 / 12997.1 4.7 4.6 4.3
2017-Apr-23 21:00N 55°36' W 156°12'1413.6 150 / 13997.1 4.8 4.7 4.3
2017-Apr-23 20:00N 55°36' W 155°48'1514.8 140 / 19997.1 5.1 5.1 5.5
2017-Apr-23 19:00N 55°30' W 155°24'1514.8 120 / 22 5.0 5.3
2017-Apr-23 18:00N 55°36' W 155°00'7 6.9 110 / 24995.8 5.4 5.0 -5.3
2017-Apr-23 17:00N 55°42' W 154°54'1514.8 100 / 24 5.0 5.7
2017-Apr-23 16:00N 55°48' W 154°30'3115.7 090 / 23 5.0 6.0
2017-Apr-23 14:00N 56°12' W 153°54'1211.7 090 / 17999.8 4.6 4.6 6.0
2017-Apr-23 13:00N 56°18' W 153°36'1211.6 100 / 161000.3 4.3 4.3 5.1
2017-Apr-23 12:00N 56°24' W 153°18'1413.7 110 / 151000.8 4.5 4.5 5.0
2017-Apr-23 11:00N 56°36' W 153°06'1413.7 110 / 151001.2 4.3 4.3 4.6
2017-Apr-23 10:00N 56°48' W 152°54'9 8.9 110 / 111001.5 4.6 4.6 4.8
2017-Apr-23 09:00N 56°54' W 152°42'1515.5 130 / 151001.7 4.8 4.8 5.2
2017-Apr-23 08:00N 57°06' W 152°24'1413.6 110 / 131002.1 5.1 5.1 5.9
2017-Apr-23 07:00N 57°18' W 152°12'1212.4 100 / 111002.3 5.0 5.0 5.4
2017-Apr-23 06:00N 57°30' W 152°06'1212.0 080 / 131002.4 4.9 4.9 4.6
2017-Apr-23 05:00N 57°42' W 152°06'6 6.4 070 / 171002.8 5.1 5.1 4.6
2017-Apr-23 04:00N 57°42' W 152°18'0 0.0 080 / 171003.7 5.1 5.0 4.7
2017-Apr-23 03:00N 57°42' W 152°18'0 0.0 070 / 191004.2 5.2 5.1 5.1
2017-Apr-23 02:00N 57°42' W 152°18'0 0.0 070 / 191004.6 5.2 4.9 5.0
2017-Apr-23 01:00N 57°42' W 152°18'0 0.0 060 / 191005.4 5.2 4.8 4.8
2017-Apr-23 00:00N 57°42' W 152°18'   060 / 181005.7 5.2 4.6 5.0

Dump ship's entire track history